sensor_id;sensor_type;location;lat;lon;timestamp;temperature;humidity
4433;DHT22;2229;48.708;9.706;2024-02-26T00:01:59;7.00;85.80
4433;DHT22;2229;48.708;9.706;2024-02-26T00:04:28;7.00;85.80
4433;DHT22;2229;48.708;9.706;2024-02-26T00:06:55;7.00;85.80
4433;DHT22;2229;48.708;9.706;2024-02-26T00:09:24;7.00;85.50
4433;DHT22;2229;48.708;9.706;2024-02-26T00:11:53;7.00;85.30
4433;DHT22;2229;48.708;9.706;2024-02-26T00:14:21;7.00;84.90
4433;DHT22;2229;48.708;9.706;2024-02-26T00:16:48;7.10;85.00
4433;DHT22;2229;48.708;9.706;2024-02-26T00:19:15;7.10;85.00
4433;DHT22;2229;48.708;9.706;2024-02-26T00:21:43;7.00;84.90
4433;DHT22;2229;48.708;9.706;2024-02-26T00:24:10;7.00;84.90
4433;DHT22;2229;48.708;9.706;2024-02-26T00:26:37;7.10;85.20
4433;DHT22;2229;48.708;9.706;2024-02-26T00:29:05;7.00;85.10
4433;DHT22;2229;48.708;9.706;2024-02-26T00:31:33;7.00;85.10
4433;DHT22;2229;48.708;9.706;2024-02-26T00:34:00;7.00;85.10
4433;DHT22;2229;48.708;9.706;2024-02-26T00:36:28;7.00;84.80
4433;DHT22;2229;48.708;9.706;2024-02-26T00:38:55;7.00;84.60
4433;DHT22;2229;48.708;9.706;2024-02-26T00:41:22;7.00;84.40
4433;DHT22;2229;48.708;9.706;2024-02-26T00:43:49;7.00;84.40
4433;DHT22;2229;48.708;9.706;2024-02-26T00:46:18;7.00;84.40
4433;DHT22;2229;48.708;9.706;2024-02-26T00:48:45;7.00;84.60
4433;DHT22;2229;48.708;9.706;2024-02-26T00:51:12;7.30;84.90
4433;DHT22;2229;48.708;9.706;2024-02-26T00:53:41;7.00;84.70
4433;DHT22;2229;48.708;9.706;2024-02-26T00:56:08;7.00;84.80
4433;DHT22;2229;48.708;9.706;2024-02-26T00:58:35;7.00;85.00
4433;DHT22;2229;48.708;9.706;2024-02-26T01:01:02;7.00;85.20
4433;DHT22;2229;48.708;9.706;2024-02-26T01:03:31;6.90;85.40
4433;DHT22;2229;48.708;9.706;2024-02-26T01:05:59;6.90;85.60
4433;DHT22;2229;48.708;9.706;2024-02-26T01:08:26;6.90;85.70
4433;DHT22;2229;48.708;9.706;2024-02-26T01:10:54;6.90;85.80
4433;DHT22;2229;48.708;9.706;2024-02-26T01:13:21;6.80;85.80
4433;DHT22;2229;48.708;9.706;2024-02-26T01:15:48;6.80;85.80
4433;DHT22;2229;48.708;9.706;2024-02-26T01:18:15;6.80;85.80
4433;DHT22;2229;48.708;9.706;2024-02-26T01:20:44;6.90;86.00
4433;DHT22;2229;48.708;9.706;2024-02-26T01:23:12;6.80;86.00
4433;DHT22;2229;48.708;9.706;2024-02-26T01:25:39;6.80;86.10
4433;DHT22;2229;48.708;9.706;2024-02-26T01:28:06;6.80;86.20
4433;DHT22;2229;48.708;9.706;2024-02-26T01:30:34;6.90;87.10
4433;DHT22;2229;48.708;9.706;2024-02-26T01:33:01;6.80;86.40
4433;DHT22;2229;48.708;9.706;2024-02-26T01:35:28;6.80;86.50
4433;DHT22;2229;48.708;9.706;2024-02-26T01:37:57;6.80;86.60
4433;DHT22;2229;48.708;9.706;2024-02-26T01:40:26;6.80;86.70
4433;DHT22;2229;48.708;9.706;2024-02-26T01:42:53;6.80;86.90
4433;DHT22;2229;48.708;9.706;2024-02-26T01:45:21;6.80;87.00
4433;DHT22;2229;48.708;9.706;2024-02-26T01:47:50;6.80;87.10
4433;DHT22;2229;48.708;9.706;2024-02-26T01:50:19;6.80;87.30
4433;DHT22;2229;48.708;9.706;2024-02-26T01:52:49;6.80;87.30
4433;DHT22;2229;48.708;9.706;2024-02-26T01:55:18;6.80;87.40
4433;DHT22;2229;48.708;9.706;2024-02-26T01:57:48;6.70;87.30
4433;DHT22;2229;48.708;9.706;2024-02-26T02:00:18;6.70;87.80
4433;DHT22;2229;48.708;9.706;2024-02-26T02:02:46;6.70;87.60
4433;DHT22;2229;48.708;9.706;2024-02-26T02:05:15;6.70;87.70
4433;DHT22;2229;48.708;9.706;2024-02-26T02:07:43;6.60;87.60
4433;DHT22;2229;48.708;9.706;2024-02-26T02:10:11;6.60;87.70
4433;DHT22;2229;48.708;9.706;2024-02-26T02:12:40;6.60;87.60
4433;DHT22;2229;48.708;9.706;2024-02-26T02:15:08;6.60;87.60
4433;DHT22;2229;48.708;9.706;2024-02-26T02:17:36;6.60;87.60
4433;DHT22;2229;48.708;9.706;2024-02-26T02:20:06;6.60;87.60
4433;DHT22;2229;48.708;9.706;2024-02-26T02:22:35;6.60;87.70
4433;DHT22;2229;48.708;9.706;2024-02-26T02:25:04;6.60;87.80
4433;DHT22;2229;48.708;9.706;2024-02-26T02:27:32;6.60;87.70
4433;DHT22;2229;48.708;9.706;2024-02-26T02:29:59;6.70;87.80
4433;DHT22;2229;48.708;9.706;2024-02-26T02:32:26;6.70;87.70
4433;DHT22;2229;48.708;9.706;2024-02-26T02:34:54;6.70;87.70
4433;DHT22;2229;48.708;9.706;2024-02-26T02:37:22;6.70;87.50
4433;DHT22;2229;48.708;9.706;2024-02-26T02:39:50;6.60;87.50
4433;DHT22;2229;48.708;9.706;2024-02-26T02:42:19;6.60;87.40
4433;DHT22;2229;48.708;9.706;2024-02-26T02:44:46;6.60;87.50
4433;DHT22;2229;48.708;9.706;2024-02-26T02:47:13;6.60;87.50
4433;DHT22;2229;48.708;9.706;2024-02-26T02:49:40;6.60;87.40
4433;DHT22;2229;48.708;9.706;2024-02-26T02:52:07;6.60;87.40
4433;DHT22;2229;48.708;9.706;2024-02-26T02:54:35;6.60;87.30
4433;DHT22;2229;48.708;9.706;2024-02-26T02:57:04;6.60;87.10
4433;DHT22;2229;48.708;9.706;2024-02-26T02:59:31;6.70;87.00
4433;DHT22;2229;48.708;9.706;2024-02-26T03:01:59;6.70;87.00
4433;DHT22;2229;48.708;9.706;2024-02-26T03:04:26;6.70;86.90
4433;DHT22;2229;48.708;9.706;2024-02-26T03:06:53;6.70;86.80
4433;DHT22;2229;48.708;9.706;2024-02-26T03:09:20;6.70;86.90
4433;DHT22;2229;48.708;9.706;2024-02-26T03:11:47;6.70;86.90
4433;DHT22;2229;48.708;9.706;2024-02-26T03:14:16;6.70;86.90
4433;DHT22;2229;48.708;9.706;2024-02-26T03:16:43;6.70;86.80
4433;DHT22;2229;48.708;9.706;2024-02-26T03:19:10;6.70;86.80
4433;DHT22;2229;48.708;9.706;2024-02-26T03:21:38;6.80;86.90
4433;DHT22;2229;48.708;9.706;2024-02-26T03:24:06;6.70;86.80
4433;DHT22;2229;48.708;9.706;2024-02-26T03:26:34;6.70;86.80
4433;DHT22;2229;48.708;9.706;2024-02-26T03:29:02;6.70;86.90
4433;DHT22;2229;48.708;9.706;2024-02-26T03:31:31;6.70;87.00
4433;DHT22;2229;48.708;9.706;2024-02-26T03:33:58;6.70;87.00
4433;DHT22;2229;48.708;9.706;2024-02-26T03:36:25;6.70;87.10
4433;DHT22;2229;48.708;9.706;2024-02-26T03:38:52;6.70;87.00
4433;DHT22;2229;48.708;9.706;2024-02-26T03:41:19;6.70;87.30
4433;DHT22;2229;48.708;9.706;2024-02-26T03:43:46;6.80;87.30
4433;DHT22;2229;48.708;9.706;2024-02-26T03:46:14;6.80;87.40
4433;DHT22;2229;48.708;9.706;2024-02-26T03:48:42;6.80;87.50
4433;DHT22;2229;48.708;9.706;2024-02-26T03:51:10;6.80;87.90
4433;DHT22;2229;48.708;9.706;2024-02-26T03:53:37;6.80;88.20
4433;DHT22;2229;48.708;9.706;2024-02-26T03:56:05;6.70;88.20
4433;DHT22;2229;48.708;9.706;2024-02-26T03:58:32;6.80;88.30
4433;DHT22;2229;48.708;9.706;2024-02-26T04:01:00;6.70;88.00
4433;DHT22;2229;48.708;9.706;2024-02-26T04:03:28;6.70;87.90
4433;DHT22;2229;48.708;9.706;2024-02-26T04:05:56;6.70;88.00
4433;DHT22;2229;48.708;9.706;2024-02-26T04:08:23;6.70;88.30
4433;DHT22;2229;48.708;9.706;2024-02-26T04:10:50;6.70;88.70
4433;DHT22;2229;48.708;9.706;2024-02-26T04:13:18;6.70;89.00
4433;DHT22;2229;48.708;9.706;2024-02-26T04:15:45;6.70;89.40
4433;DHT22;2229;48.708;9.706;2024-02-26T04:18:13;6.70;89.70
4433;DHT22;2229;48.708;9.706;2024-02-26T04:20:40;6.70;89.70
4433;DHT22;2229;48.708;9.706;2024-02-26T04:23:09;6.70;90.00
4433;DHT22;2229;48.708;9.706;2024-02-26T04:25:37;6.60;90.10
4433;DHT22;2229;48.708;9.706;2024-02-26T04:28:05;6.60;90.10
4433;DHT22;2229;48.708;9.706;2024-02-26T04:30:32;6.60;90.20
4433;DHT22;2229;48.708;9.706;2024-02-26T04:32:59;6.60;90.20
4433;DHT22;2229;48.708;9.706;2024-02-26T04:35:26;6.60;90.30
4433;DHT22;2229;48.708;9.706;2024-02-26T04:37:53;6.70;90.40
4433;DHT22;2229;48.708;9.706;2024-02-26T04:40:22;6.70;90.40
4433;DHT22;2229;48.708;9.706;2024-02-26T04:42:49;6.70;90.50
4433;DHT22;2229;48.708;9.706;2024-02-26T04:45:16;6.70;90.50
4433;DHT22;2229;48.708;9.706;2024-02-26T04:47:44;6.70;90.60
4433;DHT22;2229;48.708;9.706;2024-02-26T04:50:12;6.60;90.70
4433;DHT22;2229;48.708;9.706;2024-02-26T04:52:40;6.60;90.80
4433;DHT22;2229;48.708;9.706;2024-02-26T04:55:08;6.60;90.90
4433;DHT22;2229;48.708;9.706;2024-02-26T04:57:37;6.60;91.00
4433;DHT22;2229;48.708;9.706;2024-02-26T05:00:04;6.60;91.10
4433;DHT22;2229;48.708;9.706;2024-02-26T05:02:32;6.60;91.20
4433;DHT22;2229;48.708;9.706;2024-02-26T05:05:04;6.60;91.20
4433;DHT22;2229;48.708;9.706;2024-02-26T05:07:31;6.60;91.20
4433;DHT22;2229;48.708;9.706;2024-02-26T05:09:58;6.60;91.20
4433;DHT22;2229;48.708;9.706;2024-02-26T05:12:26;6.60;91.30
4433;DHT22;2229;48.708;9.706;2024-02-26T05:14:54;6.60;91.20
4433;DHT22;2229;48.708;9.706;2024-02-26T05:17:21;6.60;91.10
4433;DHT22;2229;48.708;9.706;2024-02-26T05:19:48;6.60;91.10
4433;DHT22;2229;48.708;9.706;2024-02-26T05:22:15;6.60;91.00
4433;DHT22;2229;48.708;9.706;2024-02-26T05:24:43;6.70;91.00
4433;DHT22;2229;48.708;9.706;2024-02-26T05:27:10;6.70;91.10
4433;DHT22;2229;48.708;9.706;2024-02-26T05:29:37;6.70;91.10
4433;DHT22;2229;48.708;9.706;2024-02-26T05:32:07;6.60;91.10
4433;DHT22;2229;48.708;9.706;2024-02-26T05:34:34;6.60;91.10
4433;DHT22;2229;48.708;9.706;2024-02-26T05:37:01;6.50;91.20
4433;DHT22;2229;48.708;9.706;2024-02-26T05:39:28;6.50;91.20
4433;DHT22;2229;48.708;9.706;2024-02-26T05:41:55;6.50;91.70
4433;DHT22;2229;48.708;9.706;2024-02-26T05:44:26;6.50;91.70
4433;DHT22;2229;48.708;9.706;2024-02-26T05:46:54;6.50;91.40
4433;DHT22;2229;48.708;9.706;2024-02-26T05:49:24;6.50;91.50
4433;DHT22;2229;48.708;9.706;2024-02-26T05:51:51;6.50;91.50
4433;DHT22;2229;48.708;9.706;2024-02-26T05:54:21;6.50;91.50
4433;DHT22;2229;48.708;9.706;2024-02-26T05:56:48;6.60;91.60
4433;DHT22;2229;48.708;9.706;2024-02-26T05:59:15;6.60;91.50
4433;DHT22;2229;48.708;9.706;2024-02-26T06:01:42;6.60;91.50
4433;DHT22;2229;48.708;9.706;2024-02-26T06:04:09;6.70;91.40
4433;DHT22;2229;48.708;9.706;2024-02-26T06:06:39;6.70;91.30
4433;DHT22;2229;48.708;9.706;2024-02-26T06:09:06;6.80;91.30
4433;DHT22;2229;48.708;9.706;2024-02-26T06:11:33;6.80;91.30
4433;DHT22;2229;48.708;9.706;2024-02-26T06:14:00;6.90;91.40
4433;DHT22;2229;48.708;9.706;2024-02-26T06:16:27;6.90;91.40
4433;DHT22;2229;48.708;9.706;2024-02-26T06:18:55;6.90;91.30
4433;DHT22;2229;48.708;9.706;2024-02-26T06:21:22;6.90;91.30
4433;DHT22;2229;48.708;9.706;2024-02-26T06:23:51;6.90;91.20
4433;DHT22;2229;48.708;9.706;2024-02-26T06:26:18;6.90;91.10
4433;DHT22;2229;48.708;9.706;2024-02-26T06:28:45;6.90;91.00
4433;DHT22;2229;48.708;9.706;2024-02-26T06:31:12;6.90;91.00
4433;DHT22;2229;48.708;9.706;2024-02-26T06:33:39;6.90;91.00
4433;DHT22;2229;48.708;9.706;2024-02-26T06:36:06;6.90;91.00
4433;DHT22;2229;48.708;9.706;2024-02-26T06:38:34;6.90;91.00
4433;DHT22;2229;48.708;9.706;2024-02-26T06:41:03;6.90;91.10
4433;DHT22;2229;48.708;9.706;2024-02-26T06:43:30;6.90;91.10
4433;DHT22;2229;48.708;9.706;2024-02-26T06:45:57;6.90;91.10
4433;DHT22;2229;48.708;9.706;2024-02-26T06:48:25;6.90;91.20
4433;DHT22;2229;48.708;9.706;2024-02-26T06:50:52;6.90;91.20
4433;DHT22;2229;48.708;9.706;2024-02-26T06:53:19;6.80;91.20
4433;DHT22;2229;48.708;9.706;2024-02-26T06:55:46;6.80;91.20
4433;DHT22;2229;48.708;9.706;2024-02-26T06:58:17;6.80;91.30
4433;DHT22;2229;48.708;9.706;2024-02-26T07:00:44;6.80;91.40
4433;DHT22;2229;48.708;9.706;2024-02-26T07:03:11;6.80;91.40
4433;DHT22;2229;48.708;9.706;2024-02-26T07:05:39;6.80;91.40
4433;DHT22;2229;48.708;9.706;2024-02-26T07:08:07;6.90;91.50
4433;DHT22;2229;48.708;9.706;2024-02-26T07:10:34;6.90;91.50
4433;DHT22;2229;48.708;9.706;2024-02-26T07:13:01;6.90;91.50
4433;DHT22;2229;48.708;9.706;2024-02-26T07:15:30;7.00;91.50
4433;DHT22;2229;48.708;9.706;2024-02-26T07:17:57;7.00;91.50
4433;DHT22;2229;48.708;9.706;2024-02-26T07:20:28;7.00;91.40
4433;DHT22;2229;48.708;9.706;2024-02-26T07:22:56;7.10;91.40
4433;DHT22;2229;48.708;9.706;2024-02-26T07:25:26;7.10;91.30
4433;DHT22;2229;48.708;9.706;2024-02-26T07:27:53;7.20;91.30
4433;DHT22;2229;48.708;9.706;2024-02-26T07:30:20;7.20;91.20
4433;DHT22;2229;48.708;9.706;2024-02-26T07:32:49;7.30;91.00
4433;DHT22;2229;48.708;9.706;2024-02-26T07:35:17;7.40;90.90
4433;DHT22;2229;48.708;9.706;2024-02-26T07:37:44;7.50;90.70
4433;DHT22;2229;48.708;9.706;2024-02-26T07:40:15;7.50;90.40
4433;DHT22;2229;48.708;9.706;2024-02-26T07:42:42;7.60;90.20
4433;DHT22;2229;48.708;9.706;2024-02-26T07:45:10;7.70;90.10
4433;DHT22;2229;48.708;9.706;2024-02-26T07:47:37;7.80;90.00
4433;DHT22;2229;48.708;9.706;2024-02-26T07:50:09;8.10;89.80
4433;DHT22;2229;48.708;9.706;2024-02-26T07:52:38;8.30;89.00
4433;DHT22;2229;48.708;9.706;2024-02-26T07:55:06;8.50;88.40
4433;DHT22;2229;48.708;9.706;2024-02-26T07:57:33;8.50;87.90
4433;DHT22;2229;48.708;9.706;2024-02-26T08:00:00;8.50;87.80
4433;DHT22;2229;48.708;9.706;2024-02-26T08:02:30;8.40;87.10
4433;DHT22;2229;48.708;9.706;2024-02-26T08:04:57;8.40;86.20
4433;DHT22;2229;48.708;9.706;2024-02-26T08:07:26;8.40;86.10
4433;DHT22;2229;48.708;9.706;2024-02-26T08:09:53;8.40;86.20
4433;DHT22;2229;48.708;9.706;2024-02-26T08:12:20;8.40;86.10
4433;DHT22;2229;48.708;9.706;2024-02-26T08:14:47;8.40;85.90
4433;DHT22;2229;48.708;9.706;2024-02-26T08:17:14;8.40;85.80
4433;DHT22;2229;48.708;9.706;2024-02-26T08:19:41;8.40;85.60
4433;DHT22;2229;48.708;9.706;2024-02-26T08:22:08;8.40;85.20
4433;DHT22;2229;48.708;9.706;2024-02-26T08:24:43;8.40;84.80
4433;DHT22;2229;48.708;9.706;2024-02-26T08:27:10;8.30;84.60
4433;DHT22;2229;48.708;9.706;2024-02-26T08:29:39;8.30;84.80
4433;DHT22;2229;48.708;9.706;2024-02-26T08:32:06;8.30;85.30
4433;DHT22;2229;48.708;9.706;2024-02-26T08:34:34;8.40;85.60
4433;DHT22;2229;48.708;9.706;2024-02-26T08:37:01;8.40;85.70
4433;DHT22;2229;48.708;9.706;2024-02-26T08:39:28;8.50;86.00
4433;DHT22;2229;48.708;9.706;2024-02-26T08:41:56;8.60;86.00
4433;DHT22;2229;48.708;9.706;2024-02-26T08:44:23;8.70;85.90
4433;DHT22;2229;48.708;9.706;2024-02-26T08:46:53;8.70;85.80
4433;DHT22;2229;48.708;9.706;2024-02-26T08:49:20;8.80;85.80
4433;DHT22;2229;48.708;9.706;2024-02-26T08:51:49;8.90;85.90
4433;DHT22;2229;48.708;9.706;2024-02-26T08:54:17;8.90;85.60
4433;DHT22;2229;48.708;9.706;2024-02-26T08:56:44;8.90;85.30
4433;DHT22;2229;48.708;9.706;2024-02-26T08:59:13;9.00;85.10
4433;DHT22;2229;48.708;9.706;2024-02-26T09:01:42;9.00;84.70
4433;DHT22;2229;48.708;9.706;2024-02-26T09:04:08;9.00;84.30
4433;DHT22;2229;48.708;9.706;2024-02-26T09:06:36;9.00;84.20
4433;DHT22;2229;48.708;9.706;2024-02-26T09:09:03;9.00;84.10
4433;DHT22;2229;48.708;9.706;2024-02-26T09:11:30;9.00;84.20
4433;DHT22;2229;48.708;9.706;2024-02-26T09:13:57;9.00;83.90
4433;DHT22;2229;48.708;9.706;2024-02-26T09:16:26;9.00;83.90
4433;DHT22;2229;48.708;9.706;2024-02-26T09:18:53;9.00;83.40
4433;DHT22;2229;48.708;9.706;2024-02-26T09:21:20;9.00;83.00
4433;DHT22;2229;48.708;9.706;2024-02-26T09:23:49;9.00;83.10
4433;DHT22;2229;48.708;9.706;2024-02-26T09:26:16;9.10;83.50
4433;DHT22;2229;48.708;9.706;2024-02-26T09:28:44;9.10;83.70
4433;DHT22;2229;48.708;9.706;2024-02-26T09:31:11;9.20;84.00
4433;DHT22;2229;48.708;9.706;2024-02-26T09:33:43;9.30;84.30
4433;DHT22;2229;48.708;9.706;2024-02-26T09:36:10;9.30;84.40
4433;DHT22;2229;48.708;9.706;2024-02-26T09:38:39;9.40;84.50
4433;DHT22;2229;48.708;9.706;2024-02-26T09:41:06;9.50;84.50
4433;DHT22;2229;48.708;9.706;2024-02-26T09:43:35;9.50;84.30
4433;DHT22;2229;48.708;9.706;2024-02-26T09:46:04;9.60;84.50
4433;DHT22;2229;48.708;9.706;2024-02-26T09:48:33;9.60;84.50
4433;DHT22;2229;48.708;9.706;2024-02-26T09:51:03;9.70;84.50
4433;DHT22;2229;48.708;9.706;2024-02-26T09:53:30;9.80;84.30
4433;DHT22;2229;48.708;9.706;2024-02-26T09:55:59;9.80;84.50
4433;DHT22;2229;48.708;9.706;2024-02-26T09:58:28;10.00;83.90
4433;DHT22;2229;48.708;9.706;2024-02-26T10:00:56;10.00;83.90
4433;DHT22;2229;48.708;9.706;2024-02-26T10:03:28;10.20;83.80
4433;DHT22;2229;48.708;9.706;2024-02-26T10:05:57;10.30;83.60
4433;DHT22;2229;48.708;9.706;2024-02-26T10:08:27;10.60;83.50
4433;DHT22;2229;48.708;9.706;2024-02-26T10:10:54;10.70;83.50
4433;DHT22;2229;48.708;9.706;2024-02-26T10:13:22;10.80;83.50
4433;DHT22;2229;48.708;9.706;2024-02-26T10:15:49;11.00;83.80
4433;DHT22;2229;48.708;9.706;2024-02-26T10:18:16;11.20;84.00
4433;DHT22;2229;48.708;9.706;2024-02-26T10:20:59;11.40;84.50
4433;DHT22;2229;48.708;9.706;2024-02-26T10:23:27;11.60;83.20
4433;DHT22;2229;48.708;9.706;2024-02-26T10:25:55;12.00;82.50
4433;DHT22;2229;48.708;9.706;2024-02-26T10:28:22;12.40;81.90
4433;DHT22;2229;48.708;9.706;2024-02-26T10:30:51;12.80;81.20
4433;DHT22;2229;48.708;9.706;2024-02-26T10:33:18;13.30;80.10
4433;DHT22;2229;48.708;9.706;2024-02-26T10:35:46;14.00;79.00
4433;DHT22;2229;48.708;9.706;2024-02-26T10:38:13;15.00;77.70
4433;DHT22;2229;48.708;9.706;2024-02-26T10:40:44;16.30;76.30
4433;DHT22;2229;48.708;9.706;2024-02-26T10:43:11;17.60;73.80
4433;DHT22;2229;48.708;9.706;2024-02-26T10:45:43;18.50;71.20
4433;DHT22;2229;48.708;9.706;2024-02-26T10:48:13;19.30;68.60
4433;DHT22;2229;48.708;9.706;2024-02-26T10:50:41;19.60;65.50
4433;DHT22;2229;48.708;9.706;2024-02-26T10:53:13;20.00;63.40
4433;DHT22;2229;48.708;9.706;2024-02-26T10:55:48;20.60;62.90
4433;DHT22;2229;48.708;9.706;2024-02-26T10:58:16;20.60;59.40
4433;DHT22;2229;48.708;9.706;2024-02-26T11:00:45;20.20;58.90
4433;DHT22;2229;48.708;9.706;2024-02-26T11:03:14;19.60;59.50
4433;DHT22;2229;48.708;9.706;2024-02-26T11:05:44;19.10;59.90
4433;DHT22;2229;48.708;9.706;2024-02-26T11:08:11;18.60;60.00
4433;DHT22;2229;48.708;9.706;2024-02-26T11:10:40;18.00;60.10
4433;DHT22;2229;48.708;9.706;2024-02-26T11:13:12;17.50;59.60
4433;DHT22;2229;48.708;9.706;2024-02-26T11:15:41;16.90;59.10
4433;DHT22;2229;48.708;9.706;2024-02-26T11:18:13;16.50;59.70
4433;DHT22;2229;48.708;9.706;2024-02-26T11:20:49;16.00;59.90
4433;DHT22;2229;48.708;9.706;2024-02-26T11:23:19;15.70;60.00
4433;DHT22;2229;48.708;9.706;2024-02-26T11:25:46;15.40;60.70
4433;DHT22;2229;48.708;9.706;2024-02-26T11:28:18;15.10;61.10
4433;DHT22;2229;48.708;9.706;2024-02-26T11:30:47;14.80;61.70
4433;DHT22;2229;48.708;9.706;2024-02-26T11:33:16;16.20;63.60
4433;DHT22;2229;48.708;9.706;2024-02-26T11:35:46;14.50;62.80
4433;DHT22;2229;48.708;9.706;2024-02-26T11:38:17;14.50;63.00
4433;DHT22;2229;48.708;9.706;2024-02-26T11:40:47;14.30;62.70
4433;DHT22;2229;48.708;9.706;2024-02-26T11:43:16;15.00;63.80
4433;DHT22;2229;48.708;9.706;2024-02-26T11:45:53;14.90;64.30
4433;DHT22;2229;48.708;9.706;2024-02-26T11:48:23;14.30;63.50
4433;DHT22;2229;48.708;9.706;2024-02-26T11:51:00;14.20;63.60
4433;DHT22;2229;48.708;9.706;2024-02-26T11:53:28;14.60;64.30
4433;DHT22;2229;48.708;9.706;2024-02-26T11:56:13;14.10;65.00
4433;DHT22;2229;48.708;9.706;2024-02-26T11:58:42;14.10;65.00
4433;DHT22;2229;48.708;9.706;2024-02-26T12:01:43;14.00;65.70
4433;DHT22;2229;48.708;9.706;2024-02-26T12:04:15;14.20;66.30
4433;DHT22;2229;48.708;9.706;2024-02-26T12:06:48;15.00;67.40
4433;DHT22;2229;48.708;9.706;2024-02-26T12:09:41;14.40;67.10
4433;DHT22;2229;48.708;9.706;2024-02-26T12:12:33;14.00;68.00
4433;DHT22;2229;48.708;9.706;2024-02-26T12:15:18;15.70;69.90
4433;DHT22;2229;48.708;9.706;2024-02-26T12:18:03;14.10;68.20
4433;DHT22;2229;48.708;9.706;2024-02-26T12:24:27;14.30;68.20
4433;DHT22;2229;48.708;9.706;2024-02-26T12:26:54;14.20;68.10
4433;DHT22;2229;48.708;9.706;2024-02-26T12:29:21;14.20;68.10
4433;DHT22;2229;48.708;9.706;2024-02-26T12:31:50;14.20;68.60
4433;DHT22;2229;48.708;9.706;2024-02-26T12:34:17;14.10;68.70
4433;DHT22;2229;48.708;9.706;2024-02-26T12:36:45;14.10;68.90
4433;DHT22;2229;48.708;9.706;2024-02-26T12:39:12;14.10;69.30
4433;DHT22;2229;48.708;9.706;2024-02-26T12:41:40;14.00;69.50
4433;DHT22;2229;48.708;9.706;2024-02-26T12:44:12;14.00;69.70
4433;DHT22;2229;48.708;9.706;2024-02-26T12:46:40;14.00;69.90
4433;DHT22;2229;48.708;9.706;2024-02-26T12:49:08;14.00;70.10
4433;DHT22;2229;48.708;9.706;2024-02-26T12:51:43;14.00;70.40
4433;DHT22;2229;48.708;9.706;2024-02-26T12:54:10;14.00;70.50
4433;DHT22;2229;48.708;9.706;2024-02-26T12:56:38;13.90;70.10
4433;DHT22;2229;48.708;9.706;2024-02-26T12:59:05;13.90;70.00
4433;DHT22;2229;48.708;9.706;2024-02-26T13:01:32;13.80;70.20
4433;DHT22;2229;48.708;9.706;2024-02-26T13:04:00;13.80;70.40
4433;DHT22;2229;48.708;9.706;2024-02-26T13:06:33;13.70;70.50
4433;DHT22;2229;48.708;9.706;2024-02-26T13:09:01;13.70;70.80
4433;DHT22;2229;48.708;9.706;2024-02-26T13:11:30;13.70;71.20
4433;DHT22;2229;48.708;9.706;2024-02-26T13:13:57;13.60;71.30
4433;DHT22;2229;48.708;9.706;2024-02-26T13:16:25;13.60;71.50
4433;DHT22;2229;48.708;9.706;2024-02-26T13:18:53;13.60;71.80
4433;DHT22;2229;48.708;9.706;2024-02-26T13:21:20;13.50;71.90
4433;DHT22;2229;48.708;9.706;2024-02-26T13:23:52;13.50;72.30
4433;DHT22;2229;48.708;9.706;2024-02-26T13:26:22;13.50;72.70
4433;DHT22;2229;48.708;9.706;2024-02-26T13:29:00;13.50;73.20
4433;DHT22;2229;48.708;9.706;2024-02-26T13:31:27;13.50;73.80
4433;DHT22;2229;48.708;9.706;2024-02-26T13:33:54;13.40;74.10
4433;DHT22;2229;48.708;9.706;2024-02-26T13:36:21;13.40;74.30
4433;DHT22;2229;48.708;9.706;2024-02-26T13:38:53;13.40;74.60
4433;DHT22;2229;48.708;9.706;2024-02-26T13:41:21;13.40;74.80
4433;DHT22;2229;48.708;9.706;2024-02-26T13:43:49;13.40;75.10
4433;DHT22;2229;48.708;9.706;2024-02-26T13:46:16;13.40;75.30
4433;DHT22;2229;48.708;9.706;2024-02-26T13:48:44;13.40;75.40
4433;DHT22;2229;48.708;9.706;2024-02-26T13:51:11;13.40;75.60
4433;DHT22;2229;48.708;9.706;2024-02-26T13:53:38;13.50;75.90
4433;DHT22;2229;48.708;9.706;2024-02-26T13:56:07;13.50;76.00
4433;DHT22;2229;48.708;9.706;2024-02-26T13:58:34;13.50;76.20
4433;DHT22;2229;48.708;9.706;2024-02-26T14:01:02;13.50;76.20
4433;DHT22;2229;48.708;9.706;2024-02-26T14:03:29;13.60;76.20
4433;DHT22;2229;48.708;9.706;2024-02-26T14:05:56;13.60;76.10
4433;DHT22;2229;48.708;9.706;2024-02-26T14:08:24;13.50;76.80
4433;DHT22;2229;48.708;9.706;2024-02-26T14:10:52;13.60;76.40
4433;DHT22;2229;48.708;9.706;2024-02-26T14:13:20;13.60;76.40
4433;DHT22;2229;48.708;9.706;2024-02-26T14:15:48;13.60;76.30
4433;DHT22;2229;48.708;9.706;2024-02-26T14:18:16;13.60;76.30
4433;DHT22;2229;48.708;9.706;2024-02-26T14:20:43;13.40;76.00
4433;DHT22;2229;48.708;9.706;2024-02-26T14:23:10;13.60;76.30
4433;DHT22;2229;48.708;9.706;2024-02-26T14:25:37;13.60;76.40
4433;DHT22;2229;48.708;9.706;2024-02-26T14:28:05;13.70;76.70
4433;DHT22;2229;48.708;9.706;2024-02-26T14:30:33;13.70;76.40
4433;DHT22;2229;48.708;9.706;2024-02-26T14:33:01;13.70;76.50
4433;DHT22;2229;48.708;9.706;2024-02-26T14:35:28;13.70;76.50
4433;DHT22;2229;48.708;9.706;2024-02-26T14:37:55;13.70;76.50
4433;DHT22;2229;48.708;9.706;2024-02-26T14:40:26;13.70;76.40
4433;DHT22;2229;48.708;9.706;2024-02-26T14:42:53;13.60;76.20
4433;DHT22;2229;48.708;9.706;2024-02-26T14:45:20;13.60;76.30
4433;DHT22;2229;48.708;9.706;2024-02-26T14:47:49;13.50;76.40
4433;DHT22;2229;48.708;9.706;2024-02-26T14:50:16;13.50;76.50
4433;DHT22;2229;48.708;9.706;2024-02-26T14:52:43;13.40;76.80
4433;DHT22;2229;48.708;9.706;2024-02-26T14:55:11;13.30;76.70
4433;DHT22;2229;48.708;9.706;2024-02-26T14:57:38;13.30;77.00
4433;DHT22;2229;48.708;9.706;2024-02-26T15:00:07;13.30;77.10
4433;DHT22;2229;48.708;9.706;2024-02-26T15:02:35;13.20;77.20
4433;DHT22;2229;48.708;9.706;2024-02-26T15:05:05;13.10;77.10
4433;DHT22;2229;48.708;9.706;2024-02-26T15:07:33;13.10;77.40
4433;DHT22;2229;48.708;9.706;2024-02-26T15:10:02;13.00;77.30
4433;DHT22;2229;48.708;9.706;2024-02-26T15:12:29;12.90;77.20
4433;DHT22;2229;48.708;9.706;2024-02-26T15:14:59;12.90;77.30
4433;DHT22;2229;48.708;9.706;2024-02-26T15:17:27;12.80;77.20
4433;DHT22;2229;48.708;9.706;2024-02-26T15:19:54;12.70;77.30
4433;DHT22;2229;48.708;9.706;2024-02-26T15:22:24;12.70;77.50
4433;DHT22;2229;48.708;9.706;2024-02-26T15:24:52;12.60;77.60
4433;DHT22;2229;48.708;9.706;2024-02-26T15:27:19;12.60;77.80
4433;DHT22;2229;48.708;9.706;2024-02-26T15:29:46;12.50;77.90
4433;DHT22;2229;48.708;9.706;2024-02-26T15:32:13;12.50;78.00
4433;DHT22;2229;48.708;9.706;2024-02-26T15:34:41;12.50;78.10
4433;DHT22;2229;48.708;9.706;2024-02-26T15:37:08;12.40;78.20
4433;DHT22;2229;48.708;9.706;2024-02-26T15:39:37;12.40;78.40
4433;DHT22;2229;48.708;9.706;2024-02-26T15:42:04;12.30;78.40
4433;DHT22;2229;48.708;9.706;2024-02-26T15:44:32;12.30;78.50
4433;DHT22;2229;48.708;9.706;2024-02-26T15:46:59;12.20;78.50
4433;DHT22;2229;48.708;9.706;2024-02-26T15:49:26;12.20;78.60
4433;DHT22;2229;48.708;9.706;2024-02-26T15:51:53;12.10;78.60
4433;DHT22;2229;48.708;9.706;2024-02-26T15:54:20;12.10;78.70
4433;DHT22;2229;48.708;9.706;2024-02-26T15:56:48;12.10;78.80
4433;DHT22;2229;48.708;9.706;2024-02-26T15:59:16;12.00;78.70
4433;DHT22;2229;48.708;9.706;2024-02-26T16:01:43;12.00;78.70
4433;DHT22;2229;48.708;9.706;2024-02-26T16:04:11;11.90;78.50
4433;DHT22;2229;48.708;9.706;2024-02-26T16:06:42;11.90;78.50
4433;DHT22;2229;48.708;9.706;2024-02-26T16:09:09;11.80;78.40
4433;DHT22;2229;48.708;9.706;2024-02-26T16:11:37;11.80;78.50
4433;DHT22;2229;48.708;9.706;2024-02-26T16:14:11;11.80;78.40
4433;DHT22;2229;48.708;9.706;2024-02-26T16:16:46;11.70;78.20
4433;DHT22;2229;48.708;9.706;2024-02-26T16:19:17;11.70;78.00
4433;DHT22;2229;48.708;9.706;2024-02-26T16:21:45;11.30;77.60
4433;DHT22;2229;48.708;9.706;2024-02-26T16:24:12;11.70;78.00